Time;durP1;ratioP1;P1;durP2;ratioP2;P2;SDS_P1;SDS_P2;PMS_P1;PMS_P2;Temp;Humidity;BMP_temperature;BMP_pressure;BME280_temperature;BME280_humidity;BME280_pressure;Samples;Min_cycle;Max_cycle;Signal;HPM_P1;HPM_P2
2022/07/22 00:01:22;;;;;;;6.65;4.80;;;;;;;;;;5019986;28;20045;-75
2022/07/22 00:03:48;;;;;;;9.85;4.63;;;;;;;;;;5022649;28;20048;-75
2022/07/22 00:06:14;;;;;;;9.43;5.13;;;;;;;;;;5023249;28;20083;-75
2022/07/22 00:08:40;;;;;;;9.10;4.57;;;;;;;;;;5022751;28;20033;-75
2022/07/22 00:11:06;;;;;;;13.23;4.90;;;;;;;;;;5026340;28;20404;-75
2022/07/22 00:13:32;;;;;;;8.18;4.78;;;;;;;;;;5021162;28;20505;-75
2022/07/22 00:15:58;;;;;;;7.60;5.22;;;;;;;;;;5024608;28;20018;-75
2022/07/22 00:18:25;;;;;;;7.45;4.82;;;;;;;;;;5023058;28;20037;-75
2022/07/22 00:20:51;;;;;;;9.40;5.60;;;;;;;;;;5023168;28;20390;-75
2022/07/22 00:23:17;;;;;;;10.65;5.50;;;;;;;;;;5021969;28;20484;-75
2022/07/22 00:25:43;;;;;;;7.50;5.40;;;;;;;;;;5021827;28;20044;-75
2022/07/22 00:28:09;;;;;;;9.52;5.18;;;;;;;;;;5021982;28;20037;-75
2022/07/22 00:30:35;;;;;;;10.25;4.93;;;;;;;;;;5020936;28;20040;-75
2022/07/22 00:33:01;;;;;;;8.90;4.82;;;;;;;;;;5018673;28;20163;-75
2022/07/22 00:35:27;;;;;;;9.88;5.00;;;;;;;;;;5029986;28;20105;-75
2022/07/22 00:37:53;;;;;;;8.50;4.88;;;;;;;;;;5017424;28;20093;-75
2022/07/22 00:40:19;;;;;;;8.43;5.32;;;;;;;;;;5026132;28;20033;-75
2022/07/22 00:42:45;;;;;;;7.38;4.68;;;;;;;;;;5021084;28;20041;-75
2022/07/22 00:45:11;;;;;;;6.85;4.63;;;;;;;;;;5019286;28;20392;-75
2022/07/22 00:47:38;;;;;;;5.55;3.97;;;;;;;;;;5020722;28;20037;-75
2022/07/22 00:50:04;;;;;;;7.15;4.35;;;;;;;;;;5021327;28;20419;-75
2022/07/22 00:52:33;;;;;;;7.43;4.57;;;;;;;;;;5028475;28;20057;-75
2022/07/22 00:55:00;;;;;;;7.55;4.93;;;;;;;;;;5019705;28;20519;-75
2022/07/22 00:57:26;;;;;;;7.10;4.45;;;;;;;;;;5025071;28;20041;-75
2022/07/22 00:59:52;;;;;;;8.45;5.32;;;;;;;;;;5022716;28;20076;-75
2022/07/22 01:02:18;;;;;;;7.93;5.05;;;;;;;;;;5019257;28;20484;-75
2022/07/22 01:04:44;;;;;;;7.50;4.72;;;;;;;;;;5019339;28;20089;-75
2022/07/22 01:07:10;;;;;;;8.48;5.28;;;;;;;;;;5021330;28;20038;-75
2022/07/22 01:09:36;;;;;;;7.68;5.03;;;;;;;;;;5023150;28;20044;-75
2022/07/22 01:12:03;;;;;;;7.78;4.85;;;;;;;;;;5016118;28;20061;-75
2022/07/22 01:14:29;;;;;;;6.80;4.70;;;;;;;;;;5015642;28;20544;-75
2022/07/22 01:16:55;;;;;;;8.25;5.53;;;;;;;;;;5020951;28;20136;-75
2022/07/22 01:19:21;;;;;;;8.70;5.07;;;;;;;;;;5020109;28;20112;-75
2022/07/22 01:21:47;;;;;;;8.05;5.63;;;;;;;;;;5021203;28;20045;-75
2022/07/22 01:24:13;;;;;;;8.65;4.88;;;;;;;;;;5021367;28;20025;-75
2022/07/22 01:26:39;;;;;;;9.15;5.38;;;;;;;;;;5020813;28;20037;-75
2022/07/22 01:29:05;;;;;;;8.63;5.32;;;;;;;;;;5020105;28;20056;-75
2022/07/22 01:31:31;;;;;;;8.73;5.22;;;;;;;;;;5015675;28;20117;-75
2022/07/22 01:33:58;;;;;;;8.45;5.50;;;;;;;;;;5017714;28;20517;-75
2022/07/22 01:36:24;;;;;;;9.15;5.47;;;;;;;;;;5018575;28;20022;-75
2022/07/22 01:38:50;;;;;;;8.15;5.28;;;;;;;;;;5020433;28;20037;-75
2022/07/22 01:41:16;;;;;;;8.80;5.68;;;;;;;;;;5021915;28;20047;-75
2022/07/22 01:43:42;;;;;;;8.38;5.53;;;;;;;;;;5019937;28;20030;-75
2022/07/22 01:46:08;;;;;;;6.35;4.55;;;;;;;;;;5027525;28;20029;-75
2022/07/22 01:48:34;;;;;;;7.50;5.28;;;;;;;;;;5028723;28;20065;-75
2022/07/22 01:51:00;;;;;;;7.65;5.03;;;;;;;;;;5016390;28;20032;-75
2022/07/22 01:53:26;;;;;;;6.97;4.38;;;;;;;;;;5029621;28;20034;-75
2022/07/22 01:55:52;;;;;;;7.93;5.22;;;;;;;;;;5027882;28;20083;-75
2022/07/22 01:58:18;;;;;;;9.38;5.22;;;;;;;;;;5001857;28;20041;-75
2022/07/22 02:00:45;;;;;;;6.80;4.72;;;;;;;;;;5018029;28;20446;-75
2022/07/22 02:03:11;;;;;;;7.57;4.93;;;;;;;;;;5013742;28;20033;-75
2022/07/22 02:05:37;;;;;;;9.20;5.80;;;;;;;;;;5017075;28;20037;-75
2022/07/22 02:08:04;;;;;;;6.35;4.07;;;;;;;;;;5020306;28;20071;-75
2022/07/22 02:10:31;;;;;;;8.25;4.82;;;;;;;;;;5021112;28;20029;-75
2022/07/22 02:12:57;;;;;;;10.25;5.63;;;;;;;;;;5020401;28;20034;-75
2022/07/22 02:15:23;;;;;;;10.85;5.50;;;;;;;;;;5024448;28;20491;-75
2022/07/22 02:17:49;;;;;;;9.27;5.75;;;;;;;;;;5016790;28;20572;-75
2022/07/22 02:20:15;;;;;;;7.32;5.40;;;;;;;;;;5021288;28;20033;-75
2022/07/22 02:22:41;;;;;;;8.40;5.50;;;;;;;;;;5016856;28;20044;-75
2022/07/22 02:25:08;;;;;;;8.68;6.05;;;;;;;;;;5021386;28;20220;-75
2022/07/22 02:27:34;;;;;;;7.05;5.05;;;;;;;;;;5001161;28;20029;-75
2022/07/22 02:30:00;;;;;;;10.52;5.95;;;;;;;;;;5020842;28;20029;-75
2022/07/22 02:32:26;;;;;;;9.73;6.07;;;;;;;;;;4998258;28;20033;-75
2022/07/22 02:34:53;;;;;;;9.73;5.82;;;;;;;;;;5022663;28;20160;-75
2022/07/22 02:37:19;;;;;;;10.15;5.20;;;;;;;;;;5019006;28;20572;-75
2022/07/22 02:39:45;;;;;;;11.07;6.00;;;;;;;;;;5020081;28;20076;-75
2022/07/22 02:42:11;;;;;;;9.40;5.80;;;;;;;;;;5017264;28;20029;-75
2022/07/22 02:44:37;;;;;;;8.80;5.22;;;;;;;;;;5019441;28;20057;-75
2022/07/22 02:47:03;;;;;;;8.27;5.53;;;;;;;;;;5021771;28;20105;-75
2022/07/22 02:49:29;;;;;;;10.70;6.70;;;;;;;;;;5027889;28;20523;-75
2022/07/22 02:51:55;;;;;;;10.50;6.60;;;;;;;;;;5021137;28;20037;-75
2022/07/22 02:54:22;;;;;;;11.27;6.32;;;;;;;;;;5008573;28;20036;-75
2022/07/22 02:56:48;;;;;;;8.65;5.85;;;;;;;;;;5019605;28;20037;-75
2022/07/22 02:59:14;;;;;;;12.45;6.97;;;;;;;;;;5024641;28;20039;-75
2022/07/22 03:01:40;;;;;;;10.00;6.63;;;;;;;;;;5019468;28;20040;-75
2022/07/22 03:04:06;;;;;;;11.90;7.50;;;;;;;;;;5021381;28;20068;-75
2022/07/22 03:06:32;;;;;;;10.13;6.30;;;;;;;;;;5023263;28;20045;-74
2022/07/22 03:08:58;;;;;;;10.50;5.68;;;;;;;;;;5019120;28;20044;-75
2022/07/22 03:11:24;;;;;;;11.65;5.20;;;;;;;;;;5020680;28;20021;-75
2022/07/22 03:13:50;;;;;;;7.55;5.13;;;;;;;;;;5035864;28;21432;-75
2022/07/22 03:16:16;;;;;;;9.02;5.30;;;;;;;;;;5028444;28;20029;-75
2022/07/22 03:18:42;;;;;;;6.82;4.88;;;;;;;;;;5019343;28;20029;-75
2022/07/22 03:21:08;;;;;;;9.38;5.95;;;;;;;;;;5018704;28;20033;-75
2022/07/22 03:23:34;;;;;;;8.95;5.07;;;;;;;;;;5030648;28;20029;-75
2022/07/22 03:26:00;;;;;;;11.65;5.85;;;;;;;;;;5027677;28;20033;-75
2022/07/22 03:28:27;;;;;;;9.80;6.05;;;;;;;;;;5024479;28;20037;-75
2022/07/22 03:30:53;;;;;;;12.55;6.93;;;;;;;;;;5025563;28;20116;-75
2022/07/22 03:33:19;;;;;;;11.20;6.82;;;;;;;;;;5025056;28;20033;-75
2022/07/22 03:35:45;;;;;;;10.32;5.88;;;;;;;;;;5026512;28;20087;-75
2022/07/22 03:38:11;;;;;;;10.68;5.90;;;;;;;;;;5027403;28;20123;-75
2022/07/22 03:40:37;;;;;;;8.43;6.15;;;;;;;;;;5023863;28;20078;-75
2022/07/22 03:43:03;;;;;;;9.50;5.72;;;;;;;;;;5022695;28;20128;-75
2022/07/22 03:45:29;;;;;;;10.50;6.22;;;;;;;;;;5016138;28;20345;-75
2022/07/22 03:47:57;;;;;;;9.55;6.30;;;;;;;;;;5038750;28;20352;-75
2022/07/22 03:50:23;;;;;;;10.05;6.20;;;;;;;;;;5023960;28;20689;-75
2022/07/22 03:52:49;;;;;;;10.88;6.65;;;;;;;;;;5026239;28;20057;-75
2022/07/22 03:55:15;;;;;;;9.25;6.00;;;;;;;;;;5026304;28;20056;-75
2022/07/22 03:57:41;;;;;;;8.63;5.60;;;;;;;;;;5017681;28;20037;-75
2022/07/22 04:00:08;;;;;;;9.48;6.07;;;;;;;;;;5023918;28;20040;-75
2022/07/22 04:02:34;;;;;;;9.20;6.35;;;;;;;;;;5018028;28;20049;-75
2022/07/22 04:05:00;;;;;;;7.93;6.05;;;;;;;;;;5021010;28;20473;-75
2022/07/22 04:07:26;;;;;;;9.38;5.68;;;;;;;;;;5022676;28;20040;-75
2022/07/22 04:10:04;;;;;;;7.45;5.20;;;;;;;;;;5023658;28;20704;-74
2022/07/22 04:12:30;;;;;;;9.77;5.57;;;;;;;;;;5026306;28;20034;-75
2022/07/22 04:14:56;;;;;;;11.10;5.40;;;;;;;;;;5023039;28;20029;-75
2022/07/22 04:17:22;;;;;;;10.77;5.43;;;;;;;;;;5025504;28;20080;-75
2022/07/22 04:19:48;;;;;;;11.63;6.13;;;;;;;;;;5027903;28;20041;-75
2022/07/22 04:22:14;;;;;;;10.73;5.55;;;;;;;;;;5020387;28;20457;-75
2022/07/22 04:24:40;;;;;;;10.40;6.32;;;;;;;;;;5021709;28;20068;-74
2022/07/22 04:27:06;;;;;;;12.07;6.45;;;;;;;;;;5019181;28;20037;-74
2022/07/22 04:29:32;;;;;;;9.02;5.45;;;;;;;;;;5020047;28;20350;-75
2022/07/22 04:31:58;;;;;;;10.35;6.75;;;;;;;;;;5020235;28;20037;-74
2022/07/22 04:34:24;;;;;;;10.18;6.45;;;;;;;;;;5021936;28;20279;-75
2022/07/22 04:36:50;;;;;;;12.07;6.05;;;;;;;;;;5023344;28;20140;-75
2022/07/22 04:39:17;;;;;;;11.98;6.43;;;;;;;;;;5018152;28;20057;-75
2022/07/22 04:41:44;;;;;;;12.05;6.35;;;;;;;;;;5024136;28;20619;-75
2022/07/22 04:44:10;;;;;;;11.95;6.95;;;;;;;;;;5022269;28;20190;-75
2022/07/22 04:46:36;;;;;;;12.15;6.35;;;;;;;;;;5022351;28;20044;-75
2022/07/22 04:49:02;;;;;;;9.55;6.28;;;;;;;;;;5026236;28;20029;-75
2022/07/22 04:51:28;;;;;;;11.15;6.35;;;;;;;;;;5024011;28;20083;-75
2022/07/22 04:53:55;;;;;;;11.95;7.25;;;;;;;;;;5040483;28;20480;-75
2022/07/22 04:56:21;;;;;;;17.27;7.93;;;;;;;;;;5019554;28;20030;-75
2022/07/22 04:58:47;;;;;;;11.00;6.78;;;;;;;;;;5030228;28;20375;-75
2022/07/22 05:01:13;;;;;;;15.40;6.25;;;;;;;;;;5033627;28;20075;-75
2022/07/22 05:03:40;;;;;;;15.68;7.47;;;;;;;;;;5022057;28;20037;-75
2022/07/22 05:06:06;;;;;;;12.85;7.10;;;;;;;;;;5018756;28;20041;-75
2022/07/22 05:08:32;;;;;;;16.02;7.57;;;;;;;;;;5021820;28;20567;-75
2022/07/22 05:10:58;;;;;;;13.13;7.00;;;;;;;;;;5020280;28;20029;-75
2022/07/22 05:13:24;;;;;;;12.80;7.13;;;;;;;;;;5021193;28;20044;-75
2022/07/22 05:15:50;;;;;;;14.13;7.13;;;;;;;;;;5023476;28;20037;-75
2022/07/22 05:18:16;;;;;;;15.30;6.68;;;;;;;;;;5022606;28;20036;-75
2022/07/22 05:20:43;;;;;;;9.80;6.78;;;;;;;;;;5024007;28;20138;-75
2022/07/22 05:23:09;;;;;;;15.82;7.47;;;;;;;;;;5017422;28;20668;-75
2022/07/22 05:25:35;;;;;;;11.48;6.43;;;;;;;;;;5020669;28;20048;-74
2022/07/22 05:28:01;;;;;;;12.40;6.95;;;;;;;;;;5023835;28;20048;-74
2022/07/22 05:30:27;;;;;;;10.40;7.20;;;;;;;;;;5034315;28;20124;-74
2022/07/22 05:32:54;;;;;;;11.50;7.00;;;;;;;;;;5022032;28;20033;-75
2022/07/22 05:35:20;;;;;;;11.10;7.22;;;;;;;;;;5018610;28;20548;-74
2022/07/22 05:37:46;;;;;;;11.23;6.90;;;;;;;;;;5021989;28;20051;-75
2022/07/22 05:40:12;;;;;;;8.32;5.95;;;;;;;;;;5023366;28;20030;-74
2022/07/22 05:42:38;;;;;;;12.40;6.78;;;;;;;;;;5025812;28;20049;-74
2022/07/22 05:45:05;;;;;;;10.30;7.47;;;;;;;;;;5020681;28;20469;-75
2022/07/22 05:47:31;;;;;;;9.35;7.38;;;;;;;;;;5021530;28;20038;-75
2022/07/22 05:49:57;;;;;;;14.45;8.77;;;;;;;;;;5023302;28;20025;-75
2022/07/22 05:52:23;;;;;;;13.00;9.80;;;;;;;;;;5016213;28;20068;-75
2022/07/22 05:54:49;;;;;;;16.00;9.82;;;;;;;;;;5025057;28;20056;-75
2022/07/22 05:57:15;;;;;;;12.32;10.38;;;;;;;;;;5019631;28;20036;-75
2022/07/22 05:59:41;;;;;;;15.90;8.82;;;;;;;;;;5020132;28;20563;-75
2022/07/22 06:02:08;;;;;;;10.40;6.50;;;;;;;;;;5022934;28;20490;-75
2022/07/22 06:04:34;;;;;;;10.98;6.10;;;;;;;;;;5020459;28;20043;-75
2022/07/22 06:07:00;;;;;;;7.90;6.18;;;;;;;;;;5022889;28;20037;-76
2022/07/22 06:09:26;;;;;;;10.35;5.60;;;;;;;;;;5017426;28;20037;-75
2022/07/22 06:11:52;;;;;;;9.40;5.82;;;;;;;;;;5024573;28;20451;-75
2022/07/22 06:14:18;;;;;;;12.75;6.70;;;;;;;;;;5020928;28;20075;-75
2022/07/22 06:16:44;;;;;;;10.70;6.13;;;;;;;;;;5018562;28;20719;-75
2022/07/22 06:19:10;;;;;;;8.95;6.22;;;;;;;;;;5019561;28;20029;-75
2022/07/22 06:21:38;;;;;;;9.60;6.28;;;;;;;;;;5022845;28;20095;-75
2022/07/22 06:24:04;;;;;;;8.38;6.10;;;;;;;;;;5022173;28;20060;-75
2022/07/22 06:26:30;;;;;;;10.40;5.93;;;;;;;;;;5013121;28;20152;-75
2022/07/22 06:28:57;;;;;;;10.48;5.82;;;;;;;;;;5018877;28;20068;-75
2022/07/22 06:31:23;;;;;;;8.77;6.40;;;;;;;;;;5026211;28;20423;-76
2022/07/22 06:33:49;;;;;;;8.23;6.05;;;;;;;;;;5020473;28;20435;-75
2022/07/22 06:36:17;;;;;;;11.85;6.43;;;;;;;;;;5024507;28;20022;-75
2022/07/22 06:38:43;;;;;;;9.00;6.35;;;;;;;;;;5025407;28;20038;-75
2022/07/22 06:41:10;;;;;;;9.05;5.82;;;;;;;;;;5021859;28;20060;-75
2022/07/22 06:43:36;;;;;;;10.85;6.22;;;;;;;;;;5018820;28;20500;-75
2022/07/22 06:46:02;;;;;;;9.05;6.28;;;;;;;;;;5023585;28;20476;-75
2022/07/22 06:48:28;;;;;;;9.98;6.00;;;;;;;;;;5020745;28;20203;-76
2022/07/22 06:50:54;;;;;;;10.15;6.28;;;;;;;;;;5025820;28;20030;-75
2022/07/22 06:53:21;;;;;;;10.48;6.10;;;;;;;;;;5020805;28;20034;-75
2022/07/22 06:55:47;;;;;;;12.02;6.10;;;;;;;;;;5024528;28;20468;-76
2022/07/22 06:58:13;;;;;;;10.35;5.75;;;;;;;;;;5023497;28;20479;-76
2022/07/22 07:00:39;;;;;;;10.88;6.40;;;;;;;;;;5021882;28;20045;-75
2022/07/22 07:03:05;;;;;;;11.30;6.82;;;;;;;;;;5027987;28;20033;-75
2022/07/22 07:05:31;;;;;;;9.15;6.80;;;;;;;;;;5028975;28;20112;-75
2022/07/22 07:07:57;;;;;;;10.23;6.50;;;;;;;;;;5028270;28;20144;-75
2022/07/22 07:10:23;;;;;;;7.68;5.93;;;;;;;;;;5021438;28;20136;-75
2022/07/22 07:12:49;;;;;;;11.50;6.78;;;;;;;;;;5026775;28;20030;-75
2022/07/22 07:15:15;;;;;;;11.65;6.32;;;;;;;;;;5025499;28;20408;-75
2022/07/22 07:17:41;;;;;;;8.43;6.38;;;;;;;;;;5020777;28;20057;-75
2022/07/22 07:20:08;;;;;;;11.32;7.07;;;;;;;;;;5024061;28;20057;-75
2022/07/22 07:22:34;;;;;;;12.68;6.80;;;;;;;;;;5025956;28;20033;-75
2022/07/22 07:25:07;;;;;;;9.52;6.55;;;;;;;;;;5028522;28;20044;-75
2022/07/22 07:27:33;;;;;;;11.82;6.82;;;;;;;;;;5024408;28;20076;-75
2022/07/22 07:29:59;;;;;;;18.45;6.88;;;;;;;;;;5030799;28;20029;-75
2022/07/22 07:32:25;;;;;;;13.48;7.20;;;;;;;;;;5028275;28;20420;-75
2022/07/22 07:34:51;;;;;;;9.50;6.22;;;;;;;;;;5023842;28;20034;-75
2022/07/22 07:37:17;;;;;;;8.77;6.55;;;;;;;;;;5023343;28;20061;-75
2022/07/22 07:39:43;;;;;;;9.50;6.95;;;;;;;;;;5026319;28;20037;-75
2022/07/22 07:42:09;;;;;;;11.80;6.60;;;;;;;;;;5024434;28;20465;-75
2022/07/22 07:44:35;;;;;;;9.00;6.85;;;;;;;;;;5022557;28;20275;-75
2022/07/22 07:47:01;;;;;;;9.98;6.22;;;;;;;;;;5024933;28;20475;-75
2022/07/22 07:49:27;;;;;;;9.52;6.32;;;;;;;;;;5028188;28;20140;-75
2022/07/22 07:51:53;;;;;;;10.68;6.35;;;;;;;;;;5024546;28;20531;-75
2022/07/22 07:54:19;;;;;;;10.75;7.20;;;;;;;;;;5023784;28;20408;-75
2022/07/22 07:56:45;;;;;;;11.18;6.43;;;;;;;;;;5025545;28;20037;-75
2022/07/22 07:59:11;;;;;;;10.18;6.28;;;;;;;;;;5022786;28;20115;-75
2022/07/22 08:01:38;;;;;;;12.40;6.25;;;;;;;;;;5027838;28;20046;-75
2022/07/22 08:04:04;;;;;;;9.75;6.30;;;;;;;;;;5023371;28;20033;-75
2022/07/22 08:06:30;;;;;;;10.13;6.63;;;;;;;;;;5023019;28;20834;-75
2022/07/22 08:08:56;;;;;;;12.18;7.38;;;;;;;;;;5020127;28;20055;-75
2022/07/22 08:11:22;;;;;;;14.23;6.97;;;;;;;;;;5026137;28;20033;-75
2022/07/22 08:13:48;;;;;;;10.13;6.65;;;;;;;;;;5028747;28;20030;-75
2022/07/22 08:16:15;;;;;;;10.88;6.72;;;;;;;;;;5027444;28;20420;-75
2022/07/22 08:18:41;;;;;;;11.98;6.63;;;;;;;;;;5023627;28;20083;-75
2022/07/22 08:21:07;;;;;;;9.25;6.63;;;;;;;;;;5022202;28;20029;-75
2022/07/22 08:23:34;;;;;;;8.45;6.13;;;;;;;;;;5024933;28;20037;-75
2022/07/22 08:26:00;;;;;;;11.63;6.78;;;;;;;;;;5029006;28;20374;-75
2022/07/22 08:28:26;;;;;;;12.10;6.00;;;;;;;;;;5021386;28;20039;-75
2022/07/22 08:30:52;;;;;;;10.63;6.30;;;;;;;;;;5025045;28;20555;-75
2022/07/22 08:33:19;;;;;;;10.73;6.55;;;;;;;;;;5024293;28;20040;-75
2022/07/22 08:35:45;;;;;;;15.80;7.18;;;;;;;;;;5021114;28;20176;-75
2022/07/22 08:38:11;;;;;;;10.77;6.70;;;;;;;;;;5029342;28;20050;-75
2022/07/22 08:40:37;;;;;;;9.85;6.47;;;;;;;;;;5021455;28;20038;-75
2022/07/22 08:43:03;;;;;;;10.68;6.32;;;;;;;;;;5022775;28;20049;-75
2022/07/22 08:45:32;;;;;;;14.70;7.20;;;;;;;;;;5023591;28;20037;-75
2022/07/22 08:48:02;;;;;;;16.17;7.10;;;;;;;;;;5024607;28;20048;-75
2022/07/22 08:50:28;;;;;;;10.05;6.57;;;;;;;;;;5026247;28;20066;-75
2022/07/22 08:52:54;;;;;;;11.45;6.65;;;;;;;;;;5022688;28;20374;-75
2022/07/22 08:55:20;;;;;;;11.35;6.65;;;;;;;;;;5025822;28;20040;-75
2022/07/22 08:57:47;;;;;;;12.20;7.38;;;;;;;;;;5023822;28;20036;-75
2022/07/22 09:00:15;;;;;;;15.25;7.57;;;;;;;;;;5022928;28;20041;-75
2022/07/22 09:02:41;;;;;;;10.55;5.97;;;;;;;;;;5019772;28;20037;-75
2022/07/22 09:05:08;;;;;;;11.77;6.88;;;;;;;;;;5022210;28;20026;-75
2022/07/22 09:07:35;;;;;;;9.50;6.25;;;;;;;;;;5025417;28;20313;-75
2022/07/22 09:10:01;;;;;;;10.43;6.28;;;;;;;;;;5020097;28;20044;-75
2022/07/22 09:12:29;;;;;;;11.75;6.10;;;;;;;;;;5022971;28;20108;-75
2022/07/22 09:14:56;;;;;;;11.77;6.75;;;;;;;;;;5029313;28;20037;-75
2022/07/22 09:17:27;;;;;;;10.10;6.45;;;;;;;;;;5022240;28;20079;-75
2022/07/22 09:19:54;;;;;;;10.85;5.88;;;;;;;;;;5021971;28;20039;-75
2022/07/22 09:22:35;;;;;;;8.52;6.20;;;;;;;;;;5020298;28;20030;-75
2022/07/22 09:25:18;;;;;;;13.00;6.95;;;;;;;;;;5023584;28;20036;-75
2022/07/22 09:27:44;;;;;;;10.52;7.47;;;;;;;;;;5024141;28;20026;-75
2022/07/22 09:30:28;;;;;;;14.55;6.53;;;;;;;;;;5028709;28;20032;-75
2022/07/22 09:32:56;;;;;;;11.80;6.97;;;;;;;;;;5028777;28;20059;-75
2022/07/22 09:35:22;;;;;;;13.05;6.70;;;;;;;;;;5024241;28;20056;-75
2022/07/22 09:37:51;;;;;;;11.15;6.50;;;;;;;;;;5023249;28;20061;-76
2022/07/22 09:40:22;;;;;;;13.48;6.57;;;;;;;;;;5026988;28;20064;-76
2022/07/22 09:42:55;;;;;;;11.63;6.78;;;;;;;;;;5018737;28;20493;-76
2022/07/22 09:45:22;;;;;;;10.63;6.53;;;;;;;;;;5019227;28;20517;-76
2022/07/22 09:47:49;;;;;;;11.35;6.55;;;;;;;;;;5018703;28;20026;-76
2022/07/22 09:50:15;;;;;;;10.60;5.78;;;;;;;;;;5019414;28;20370;-76
2022/07/22 09:52:42;;;;;;;11.52;6.07;;;;;;;;;;5021525;28;20068;-76
2022/07/22 09:55:08;;;;;;;9.93;5.47;;;;;;;;;;5024265;28;20032;-76
2022/07/22 09:57:34;;;;;;;8.05;5.35;;;;;;;;;;5027336;28;20038;-76
2022/07/22 10:00:00;;;;;;;11.82;5.65;;;;;;;;;;5026926;28;20065;-76
2022/07/22 10:02:28;;;;;;;10.90;5.57;;;;;;;;;;5020439;28;20100;-76
2022/07/22 10:04:55;;;;;;;11.48;5.25;;;;;;;;;;5022344;28;20033;-76
2022/07/22 10:07:22;;;;;;;7.20;4.55;;;;;;;;;;5024215;28;20061;-76
2022/07/22 10:09:49;;;;;;;9.23;5.72;;;;;;;;;;5023201;28;20107;-76
2022/07/22 10:12:15;;;;;;;8.70;5.90;;;;;;;;;;5017248;28;20085;-76
2022/07/22 10:14:42;;;;;;;9.90;6.15;;;;;;;;;;5025043;28;20488;-76
2022/07/22 10:17:08;;;;;;;10.35;6.00;;;;;;;;;;5024618;28;20469;-76
2022/07/22 10:19:35;;;;;;;12.77;6.38;;;;;;;;;;5022118;28;20030;-76
2022/07/22 10:22:01;;;;;;;8.02;5.43;;;;;;;;;;5022015;28;20439;-76
2022/07/22 10:24:27;;;;;;;8.02;5.55;;;;;;;;;;5018901;28;20037;-76
2022/07/22 10:26:55;;;;;;;8.27;5.03;;;;;;;;;;5025456;28;20037;-76
2022/07/22 10:29:28;;;;;;;9.70;6.03;;;;;;;;;;5018951;28;20241;-76
2022/07/22 10:32:13;;;;;;;8.65;6.13;;;;;;;;;;5027614;28;20028;-76
2022/07/22 10:34:39;;;;;;;12.75;5.15;;;;;;;;;;5025724;28;20397;-76
2022/07/22 10:37:25;;;;;;;7.75;5.07;;;;;;;;;;5024201;28;20077;-76
2022/07/22 10:40:10;;;;;;;11.68;5.25;;;;;;;;;;5029832;28;20033;-76
2022/07/22 10:42:55;;;;;;;7.82;5.35;;;;;;;;;;5026191;28;20823;-76
2022/07/22 10:45:21;;;;;;;15.55;6.25;;;;;;;;;;5025886;28;20292;-76
2022/07/22 10:48:07;;;;;;;9.10;6.55;;;;;;;;;;5023909;28;20041;-76
2022/07/22 10:50:43;;;;;;;9.18;5.78;;;;;;;;;;5030835;28;20095;-76
2022/07/22 10:53:10;;;;;;;8.43;5.50;;;;;;;;;;5031581;28;20137;-75
2022/07/22 10:55:37;;;;;;;8.32;5.10;;;;;;;;;;5025818;28;20068;-76
2022/07/22 10:58:21;;;;;;;10.65;6.38;;;;;;;;;;5028127;28;20072;-76
2022/07/22 11:00:48;;;;;;;9.57;6.10;;;;;;;;;;5028451;28;20034;-76
2022/07/22 11:03:24;;;;;;;7.72;5.55;;;;;;;;;;5027415;28;20029;-76
2022/07/22 11:05:50;;;;;;;12.40;5.43;;;;;;;;;;5023507;28;20069;-75
2022/07/22 11:08:18;;;;;;;8.15;5.15;;;;;;;;;;5025974;28;20107;-76
2022/07/22 11:10:48;;;;;;;10.18;5.38;;;;;;;;;;5023674;28;20029;-76
2022/07/22 11:13:14;;;;;;;9.32;5.60;;;;;;;;;;5023242;28;20495;-76
2022/07/22 11:15:40;;;;;;;13.10;5.90;;;;;;;;;;5030950;28;20409;-75
2022/07/22 11:18:06;;;;;;;9.00;5.43;;;;;;;;;;5028206;28;20037;-76
2022/07/22 11:20:32;;;;;;;9.82;5.70;;;;;;;;;;5022194;28;20038;-76
2022/07/22 11:22:58;;;;;;;7.45;5.05;;;;;;;;;;5022137;28;20058;-76
2022/07/22 11:25:27;;;;;;;9.48;5.32;;;;;;;;;;5029756;28;20037;-76
2022/07/22 11:27:53;;;;;;;7.78;4.70;;;;;;;;;;5038498;28;20474;-76
2022/07/22 11:30:19;;;;;;;10.57;5.10;;;;;;;;;;5021694;28;20029;-76
2022/07/22 11:32:46;;;;;;;7.28;4.82;;;;;;;;;;5024108;28;20022;-76
2022/07/22 11:35:13;;;;;;;8.27;4.60;;;;;;;;;;5026106;28;20026;-76
2022/07/22 11:37:39;;;;;;;9.75;4.57;;;;;;;;;;5028744;28;20049;-76
2022/07/22 11:40:06;;;;;;;9.27;4.90;;;;;;;;;;5031765;28;20043;-76
2022/07/22 11:42:32;;;;;;;8.73;5.28;;;;;;;;;;5023405;28;20036;-76
2022/07/22 11:44:59;;;;;;;8.50;5.65;;;;;;;;;;5025711;28;20035;-76
2022/07/22 11:47:25;;;;;;;8.90;5.30;;;;;;;;;;5022109;28;20474;-76
2022/07/22 11:49:51;;;;;;;7.70;5.28;;;;;;;;;;5031619;28;20069;-76
2022/07/22 11:52:18;;;;;;;7.63;5.40;;;;;;;;;;5028241;28;20469;-76
2022/07/22 11:54:44;;;;;;;9.48;5.32;;;;;;;;;;5023255;28;20040;-76
2022/07/22 11:57:11;;;;;;;10.23;4.90;;;;;;;;;;5023940;28;20827;-76
2022/07/22 11:59:37;;;;;;;7.40;4.75;;;;;;;;;;5023512;28;20131;-76
2022/07/22 12:02:04;;;;;;;10.18;4.72;;;;;;;;;;5006959;28;20120;-76
2022/07/22 12:04:32;;;;;;;6.25;4.50;;;;;;;;;;5023306;28;20475;-76
2022/07/22 12:06:59;;;;;;;11.02;6.03;;;;;;;;;;5028598;28;20436;-76
2022/07/22 12:09:26;;;;;;;10.85;4.38;;;;;;;;;;5026009;28;20044;-76
2022/07/22 12:11:54;;;;;;;7.03;4.80;;;;;;;;;;5021736;28;20037;-76
2022/07/22 12:14:22;;;;;;;10.18;4.70;;;;;;;;;;5024147;28;20156;-76
2022/07/22 12:16:54;;;;;;;9.63;4.35;;;;;;;;;;5027419;28;20033;-76
2022/07/22 12:19:21;;;;;;;12.80;4.75;;;;;;;;;;5025401;28;20037;-76
2022/07/22 12:21:51;;;;;;;12.18;5.30;;;;;;;;;;5022399;28;20033;-76
2022/07/22 12:24:25;;;;;;;8.52;4.57;;;;;;;;;;5021413;28;20281;-76
2022/07/22 12:26:51;;;;;;;7.30;4.45;;;;;;;;;;5024313;28;20108;-76
2022/07/22 12:29:22;;;;;;;6.53;4.25;;;;;;;;;;5025800;28;20133;-76
2022/07/22 12:31:49;;;;;;;9.85;4.45;;;;;;;;;;5025307;28;20037;-76
2022/07/22 12:34:15;;;;;;;9.20;4.35;;;;;;;;;;5028270;28;20060;-76
2022/07/22 12:36:46;;;;;;;6.47;4.20;;;;;;;;;;5025085;28;20044;-76
2022/07/22 12:39:16;;;;;;;7.47;4.10;;;;;;;;;;5023015;28;20041;-76
2022/07/22 12:41:47;;;;;;;10.33;4.20;;;;;;;;;;5024940;28;20152;-76
2022/07/22 12:44:17;;;;;;;9.23;3.97;;;;;;;;;;5025115;28;20280;-76
2022/07/22 12:46:51;;;;;;;8.35;4.65;;;;;;;;;;5025579;28;20037;-76
2022/07/22 12:49:18;;;;;;;6.68;4.20;;;;;;;;;;5018073;28;20533;-76
2022/07/22 12:52:02;;;;;;;6.78;4.15;;;;;;;;;;5022911;28;20029;-76
2022/07/22 12:54:28;;;;;;;6.75;4.13;;;;;;;;;;5023737;28;20049;-76
2022/07/22 12:56:54;;;;;;;7.53;4.28;;;;;;;;;;5021401;28;20451;-76
2022/07/22 12:59:21;;;;;;;8.15;3.50;;;;;;;;;;5026953;28;20136;-76
2022/07/22 13:01:48;;;;;;;6.40;3.83;;;;;;;;;;5027106;28;20042;-76
2022/07/22 13:04:14;;;;;;;9.60;4.10;;;;;;;;;;5025893;28;20025;-76
2022/07/22 13:06:40;;;;;;;12.20;4.35;;;;;;;;;;5023922;28;20064;-76
2022/07/22 13:09:06;;;;;;;9.77;4.80;;;;;;;;;;5022852;28;20060;-76
2022/07/22 13:11:33;;;;;;;7.63;3.95;;;;;;;;;;5026447;28;20036;-76
2022/07/22 13:13:59;;;;;;;7.13;4.20;;;;;;;;;;5027269;28;20029;-76
2022/07/22 13:16:25;;;;;;;11.57;5.18;;;;;;;;;;5023249;28;20030;-76
2022/07/22 13:18:51;;;;;;;9.68;4.13;;;;;;;;;;5022529;28;20053;-76
2022/07/22 13:21:17;;;;;;;13.23;4.80;;;;;;;;;;5022449;28;20128;-76
2022/07/22 13:23:43;;;;;;;9.98;4.65;;;;;;;;;;5028138;28;20113;-76
2022/07/22 13:26:09;;;;;;;12.45;4.07;;;;;;;;;;5022579;28;20037;-76
2022/07/22 13:28:35;;;;;;;7.82;3.88;;;;;;;;;;5029478;28;20108;-76
2022/07/22 13:31:01;;;;;;;8.98;4.18;;;;;;;;;;5023608;28;20040;-76
2022/07/22 13:33:27;;;;;;;8.43;4.53;;;;;;;;;;5019405;28;20026;-76
2022/07/22 13:35:54;;;;;;;10.10;3.88;;;;;;;;;;5028317;28;20037;-76
2022/07/22 13:38:20;;;;;;;7.47;3.70;;;;;;;;;;5001416;28;20054;-76
2022/07/22 13:40:52;;;;;;;7.93;4.10;;;;;;;;;;5023907;28;20037;-76
2022/07/22 13:43:22;;;;;;;10.82;4.32;;;;;;;;;;5019083;28;20075;-76
2022/07/22 13:45:49;;;;;;;9.30;3.87;;;;;;;;;;5025176;28;20408;-76
2022/07/22 13:48:17;;;;;;;8.30;4.10;;;;;;;;;;5021668;28;20112;-76
2022/07/22 13:50:43;;;;;;;5.30;3.60;;;;;;;;;;5027654;28;20025;-76
2022/07/22 13:53:09;;;;;;;9.10;4.18;;;;;;;;;;5023718;28;20408;-76
2022/07/22 13:55:35;;;;;;;7.22;4.28;;;;;;;;;;5024558;28;20052;-76
2022/07/22 13:58:01;;;;;;;10.50;4.57;;;;;;;;;;5022177;28;20172;-76
2022/07/22 14:00:27;;;;;;;7.03;3.75;;;;;;;;;;5021335;28;20539;-76
2022/07/22 14:02:53;;;;;;;10.27;4.20;;;;;;;;;;5024904;28;20407;-76
2022/07/22 14:05:19;;;;;;;8.63;4.32;;;;;;;;;;5021199;28;20104;-76
2022/07/22 14:07:45;;;;;;;6.10;4.10;;;;;;;;;;5020380;28;20040;-76
2022/07/22 14:10:11;;;;;;;8.70;4.47;;;;;;;;;;5015288;28;20025;-76
2022/07/22 14:12:37;;;;;;;11.98;4.20;;;;;;;;;;5022406;28;20076;-76
2022/07/22 14:15:04;;;;;;;7.70;3.92;;;;;;;;;;5020340;28;20037;-76
2022/07/22 14:17:30;;;;;;;9.68;4.60;;;;;;;;;;5025269;28;20041;-76
2022/07/22 14:19:56;;;;;;;7.43;3.88;;;;;;;;;;5024315;28;20067;-76
2022/07/22 14:22:22;;;;;;;9.02;4.30;;;;;;;;;;5023192;28;20682;-76
2022/07/22 14:24:48;;;;;;;6.35;3.65;;;;;;;;;;5019697;28;20052;-76
2022/07/22 14:27:14;;;;;;;7.78;4.20;;;;;;;;;;5022851;28;20037;-76
2022/07/22 14:29:40;;;;;;;8.70;4.57;;;;;;;;;;5025725;28;20453;-76
2022/07/22 14:32:06;;;;;;;10.55;4.55;;;;;;;;;;5022754;28;20797;-76
2022/07/22 14:34:32;;;;;;;9.05;4.78;;;;;;;;;;5021307;28;20551;-76